Time;durP1;ratioP1;P1;durP2;ratioP2;P2;SDS_P1;SDS_P2;PMS_P1;PMS_P2;Temp;Humidity;BMP_temperature;BMP_pressure;BME280_temperature;BME280_humidity;BME280_pressure;Samples;Min_cycle;Max_cycle;Signal;HPM_P1;HPM_P2
2023/01/16 00:00:50;;;;;;;7.47;4.28;;;5.20;99.90;;;;;;5032361;28;20041;-71
2023/01/16 00:03:16;;;;;;;7.15;4.35;;;5.30;99.90;;;;;;5031184;28;20041;-71
2023/01/16 00:05:42;;;;;;;6.68;4.72;;;5.20;99.90;;;;;;5032299;28;20384;-71
2023/01/16 00:08:07;;;;;;;10.75;4.10;;;5.20;99.90;;;;;;5032260;28;20041;-71
2023/01/16 00:10:33;;;;;;;9.98;4.43;;;5.30;99.90;;;;;;5031607;28;20033;-71
2023/01/16 00:12:59;;;;;;;6.55;4.10;;;5.30;99.90;;;;;;5030474;28;20041;-71
2023/01/16 00:15:24;;;;;;;10.40;3.88;;;5.30;99.90;;;;;;5032141;28;20048;-71
2023/01/16 00:17:50;;;;;;;5.45;3.63;;;5.30;99.90;;;;;;5032192;28;20037;-71
2023/01/16 00:20:16;;;;;;;6.20;3.67;;;5.20;99.90;;;;;;5030746;28;20045;-71
2023/01/16 00:22:41;;;;;;;5.90;3.30;;;5.30;99.90;;;;;;5029768;28;20080;-71
2023/01/16 00:25:07;;;;;;;7.45;3.80;;;5.40;99.90;;;;;;5032486;28;20471;-71
2023/01/16 00:27:33;;;;;;;6.88;3.75;;;5.20;99.90;;;;;;5031960;28;20067;-71
2023/01/16 00:29:58;;;;;;;8.07;3.47;;;5.20;99.90;;;;;;5030705;28;20072;-71
2023/01/16 00:32:24;;;;;;;7.90;3.78;;;5.10;99.90;;;;;;5030916;28;20045;-71
2023/01/16 00:34:49;;;;;;;8.20;3.80;;;5.10;99.90;;;;;;5031818;28;20034;-71
2023/01/16 00:37:15;;;;;;;7.10;3.40;;;5.20;99.90;;;;;;5031435;28;20034;-73
2023/01/16 00:39:40;;;;;;;7.13;4.03;;;5.10;99.90;;;;;;5031811;28;20533;-71
2023/01/16 00:42:07;;;;;;;5.65;2.83;;;5.10;99.90;;;;;;5031693;28;20041;-72
2023/01/16 00:44:33;;;;;;;4.40;3.17;;;5.00;99.90;;;;;;5029938;28;20044;-71
2023/01/16 00:46:59;;;;;;;5.53;2.88;;;5.00;99.90;;;;;;5031775;28;20041;-72
2023/01/16 00:49:24;;;;;;;5.13;2.88;;;4.90;99.90;;;;;;5031738;28;20042;-71
2023/01/16 00:51:50;;;;;;;4.45;2.50;;;4.90;99.90;;;;;;5031565;28;20042;-71
2023/01/16 00:54:15;;;;;;;8.05;2.95;;;4.90;99.90;;;;;;5029525;28;20435;-71
2023/01/16 00:56:41;;;;;;;6.43;2.85;;;4.90;99.90;;;;;;5030374;28;20522;-71
2023/01/16 00:59:06;;;;;;;5.22;2.72;;;4.80;99.90;;;;;;5030351;28;20132;-71
2023/01/16 01:01:32;;;;;;;3.38;2.40;;;4.70;99.90;;;;;;5030227;28;20038;-72
2023/01/16 01:03:59;;;;;;;5.70;2.92;;;4.70;99.90;;;;;;5030664;28;20503;-71
2023/01/16 01:06:25;;;;;;;6.93;3.08;;;4.70;99.90;;;;;;5030187;28;20487;-71
2023/01/16 01:08:51;;;;;;;6.13;2.83;;;4.70;99.90;;;;;;5030175;28;20038;-71
2023/01/16 01:11:16;;;;;;;6.22;2.80;;;4.50;99.90;;;;;;5031676;28;20092;-71
2023/01/16 01:13:42;;;;;;;7.20;2.40;;;4.50;99.90;;;;;;5029297;28;20680;-71
2023/01/16 01:16:09;;;;;;;6.28;2.50;;;4.60;99.90;;;;;;5031887;28;20037;-72
2023/01/16 01:18:35;;;;;;;5.82;2.47;;;4.40;99.90;;;;;;5031465;28;20471;-71
2023/01/16 01:21:01;;;;;;;5.03;2.50;;;4.50;99.90;;;;;;5031492;28;20077;-71
2023/01/16 01:23:26;;;;;;;3.88;2.20;;;4.40;99.90;;;;;;5033292;28;20080;-73
2023/01/16 01:25:52;;;;;;;5.75;2.53;;;4.40;99.90;;;;;;5035577;28;20079;-73
2023/01/16 01:28:18;;;;;;;6.05;3.05;;;4.40;99.90;;;;;;5034199;28;20041;-73
2023/01/16 01:30:44;;;;;;;3.20;2.35;;;4.20;99.90;;;;;;5035049;28;20064;-73
2023/01/16 01:33:09;;;;;;;5.93;2.47;;;4.30;99.90;;;;;;5034292;28;20121;-73
2023/01/16 01:35:35;;;;;;;4.43;2.40;;;4.30;99.90;;;;;;5035093;28;20073;-73
2023/01/16 01:38:01;;;;;;;4.18;2.40;;;4.40;99.90;;;;;;5035121;28;20083;-73
2023/01/16 01:40:27;;;;;;;5.50;2.42;;;4.20;99.90;;;;;;5035227;28;20526;-73
2023/01/16 01:42:53;;;;;;;3.80;2.40;;;4.20;99.90;;;;;;5034426;28;20404;-73
2023/01/16 01:45:28;;;;;;;3.05;2.20;;;4.20;99.90;;;;;;5033925;28;20057;-73
2023/01/16 01:48:12;;;;;;;5.40;2.90;;;4.00;99.90;;;;;;5035281;28;20560;-73
2023/01/16 01:50:49;;;;;;;;;;;4.10;99.90;;;;;;5035715;28;20052;-72
2023/01/16 01:53:18;;;;;;;6.05;2.55;;;3.90;99.90;;;;;;5032846;28;19917;-73
2023/01/16 01:55:46;;;;;;;6.05;2.30;;;4.10;99.90;;;;;;5034764;28;20649;-73
2023/01/16 01:58:20;;;;;;;5.85;2.70;;;3.90;99.90;;;;;;5035005;28;20434;-72
2023/01/16 02:00:47;;;;;;;7.80;3.65;;;4.00;99.90;;;;;;5034522;28;20446;-72
2023/01/16 02:03:25;;;;;;;4.78;2.55;;;4.00;99.90;;;;;;5033905;28;20057;-73
2023/01/16 02:05:53;;;;;;;3.85;2.33;;;3.90;99.90;;;;;;5034720;28;20041;-73
2023/01/16 02:08:22;;;;;;;6.22;2.70;;;4.10;99.90;;;;;;5033065;28;20127;-73
2023/01/16 02:10:53;;;;;;;5.00;2.78;;;4.00;99.90;;;;;;5034541;28;20606;-73
2023/01/16 02:13:19;;;;;;;10.10;3.65;;;4.00;99.90;;;;;;5033476;28;20159;-73
2023/01/16 02:21:37;;;;;;;6.03;2.75;;;4.00;99.90;;;;;;5034337;28;20053;-73
2023/01/16 02:24:58;;;;;;;6.82;3.00;;;4.20;99.90;;;;;;5032347;28;20415;-73
2023/01/16 02:27:45;;;;;;;5.13;2.95;;;4.20;99.90;;;;;;5010723;28;20583;-73
2023/01/16 02:30:47;;;;;;;7.47;3.13;;;4.20;99.90;;;;;;5032871;28;20256;-73
2023/01/16 02:33:28;;;;;;;7.97;3.45;;;4.40;99.90;;;;;;5002698;28;20157;-73
2023/01/16 02:36:14;;;;;;;4.75;2.28;;;4.40;99.90;;;;;;5033002;28;20487;-72
2023/01/16 02:39:09;;;;;;;5.80;2.70;;;4.30;99.90;;;;;;5034249;28;20052;-73
2023/01/16 02:41:52;;;;;;;6.00;2.40;;;4.50;99.90;;;;;;5032712;28;20088;-73
2023/01/16 02:44:31;;;;;;;7.33;2.77;;;4.40;99.90;;;;;;5031590;28;20056;-73
2023/01/16 02:47:13;;;;;;;3.67;2.17;;;4.50;99.90;;;;;;5032863;28;20798;-73
2023/01/16 02:49:59;;;;;;;5.40;2.53;;;4.60;99.90;;;;;;5032479;28;20049;-73
2023/01/16 02:52:30;;;;;;;4.07;2.15;;;4.50;99.90;;;;;;5031563;28;20526;-73
2023/01/16 02:55:12;;;;;;;5.32;2.53;;;4.60;99.90;;;;;;5032252;28;20049;-73
2023/01/16 02:57:43;;;;;;;4.88;2.25;;;4.40;99.90;;;;;;5033742;28;20045;-72
2023/01/16 03:00:09;;;;;;;5.15;2.60;;;4.40;99.90;;;;;;5032247;28;20037;-73
2023/01/16 03:02:35;;;;;;;7.10;2.47;;;4.50;99.90;;;;;;5031523;28;20051;-73
2023/01/16 03:05:00;;;;;;;9.63;2.50;;;4.40;99.90;;;;;;5032195;28;20041;-73
2023/01/16 03:07:55;;;;;;;6.55;2.75;;;4.50;99.90;;;;;;5033353;28;20030;-73
2023/01/16 03:10:23;;;;;;;;;;;4.50;99.90;;;;;;5033465;28;20107;-73
2023/01/16 03:13:22;;;;;;;4.32;2.33;;;4.50;99.90;;;;;;5031013;28;19971;-72
2023/01/16 03:16:13;;;;;;;9.48;2.45;;;4.60;99.90;;;;;;5029273;28;20124;-73
2023/01/16 03:18:56;;;;;;;5.80;2.60;;;4.60;99.90;;;;;;5031968;28;20073;-72
2023/01/16 03:21:37;;;;;;;5.40;2.40;;;4.60;99.90;;;;;;5031705;28;20053;-72
2023/01/16 03:24:27;;;;;;;3.72;2.15;;;4.60;99.90;;;;;;5032087;28;20164;-73
2023/01/16 03:27:19;;;;;;;7.00;2.03;;;4.50;99.90;;;;;;5031832;28;20045;-73
2023/01/16 03:29:56;;;;;;;6.60;2.45;;;4.50;99.90;;;;;;5032866;28;20415;-73
2023/01/16 03:32:36;;;;;;;7.68;2.15;;;4.40;99.90;;;;;;5032342;28;20072;-73
2023/01/16 03:35:21;;;;;;;5.43;2.25;;;4.50;99.90;;;;;;5031961;28;20068;-73
2023/01/16 03:37:51;;;;;;;5.55;2.40;;;4.50;99.90;;;;;;5031640;28;20471;-72
2023/01/16 03:40:27;;;;;;;9.45;2.70;;;4.30;99.90;;;;;;5031827;28;20053;-73
2023/01/16 03:43:05;;;;;;;4.88;2.25;;;4.30;99.90;;;;;;5031907;28;20071;-73
2023/01/16 03:45:41;;;;;;;3.10;2.22;;;4.50;99.90;;;;;;5031259;28;20045;-73
2023/01/16 03:48:18;;;;;;;6.40;2.75;;;4.40;99.90;;;;;;5031433;28;20045;-72
2023/01/16 03:50:50;;;;;;;4.53;2.08;;;4.30;99.90;;;;;;5031439;28;20491;-73
2023/01/16 03:53:20;;;;;;;4.78;2.10;;;4.40;99.90;;;;;;5030524;28;20573;-73
2023/01/16 03:55:59;;;;;;;4.07;2.22;;;4.40;99.90;;;;;;5031226;28;20515;-72
2023/01/16 03:58:30;;;;;;;7.35;2.20;;;4.40;99.90;;;;;;5031582;28;20053;-72
2023/01/16 04:00:56;;;;;;;7.55;2.40;;;4.30;99.90;;;;;;5031111;28;20554;-73
2023/01/16 04:03:28;;;;;;;6.32;2.40;;;4.50;99.90;;;;;;5029911;28;20053;-73
2023/01/16 04:06:02;;;;;;;6.45;2.10;;;4.50;99.90;;;;;;5032552;28;20041;-72
2023/01/16 04:08:34;;;;;;;8.23;2.15;;;4.40;99.90;;;;;;5030861;28;20042;-73
2023/01/16 04:11:00;;;;;;;4.55;2.50;;;4.30;99.90;;;;;;5031049;28;20048;-73
2023/01/16 04:13:31;;;;;;;4.95;2.30;;;4.40;99.90;;;;;;5031434;28;20044;-73
2023/01/16 04:16:01;;;;;;;7.78;2.97;;;4.30;99.90;;;;;;5031028;28;20037;-72
2023/01/16 04:18:31;;;;;;;6.07;2.97;;;4.40;99.90;;;;;;5031180;28;20503;-73
2023/01/16 04:20:57;;;;;;;4.05;3.30;;;4.40;99.90;;;;;;5030881;28;20037;-73
2023/01/16 04:23:22;;;;;;;8.13;3.05;;;4.30;99.90;;;;;;5031243;28;20111;-73
2023/01/16 04:25:48;;;;;;;7.30;2.70;;;4.40;99.90;;;;;;5032044;28;20041;-73
2023/01/16 04:28:14;;;;;;;5.50;2.45;;;4.40;99.90;;;;;;5030715;28;20050;-73
2023/01/16 04:30:39;;;;;;;4.65;2.13;;;4.40;99.90;;;;;;5031872;28;20033;-73
2023/01/16 04:33:05;;;;;;;10.38;2.40;;;4.40;99.90;;;;;;5029771;28;20116;-73
2023/01/16 04:35:31;;;;;;;6.00;2.78;;;4.50;99.90;;;;;;5030710;28;20044;-73
2023/01/16 04:37:57;;;;;;;9.43;2.90;;;4.70;99.90;;;;;;5031945;28;20050;-73
2023/01/16 04:40:23;;;;;;;4.47;2.60;;;4.40;99.90;;;;;;5031841;28;20124;-73
2023/01/16 04:42:48;;;;;;;7.45;2.90;;;4.50;99.90;;;;;;5029848;28;20049;-72
2023/01/16 04:45:14;;;;;;;9.27;3.60;;;4.40;99.90;;;;;;5030572;28;20175;-73
2023/01/16 04:47:40;;;;;;;8.68;4.28;;;4.40;99.90;;;;;;5031575;28;20045;-73
2023/01/16 04:50:06;;;;;;;4.65;2.58;;;4.60;99.90;;;;;;5031869;28;20076;-73
2023/01/16 04:52:32;;;;;;;5.93;3.67;;;4.40;99.90;;;;;;5031051;28;20037;-72
2023/01/16 04:54:57;;;;;;;7.50;3.80;;;4.50;99.90;;;;;;5031428;28;20048;-73
2023/01/16 04:57:23;;;;;;;6.25;3.17;;;4.50;99.90;;;;;;5030921;28;20038;-73
2023/01/16 04:59:48;;;;;;;8.65;4.03;;;4.40;99.90;;;;;;5031496;28;20052;-73
2023/01/16 05:02:14;;;;;;;5.28;3.35;;;4.60;99.90;;;;;;5030337;28;20077;-73
2023/01/16 05:04:39;;;;;;;6.78;3.95;;;4.70;99.90;;;;;;5013365;28;20073;-72
2023/01/16 05:07:05;;;;;;;7.28;3.83;;;4.60;99.90;;;;;;5031643;28;20037;-73
2023/01/16 05:09:30;;;;;;;8.95;4.25;;;4.60;99.90;;;;;;5031350;28;20041;-73
2023/01/16 05:11:56;;;;;;;8.27;4.60;;;4.50;99.90;;;;;;5031338;28;20044;-73
2023/01/16 05:14:21;;;;;;;9.48;4.57;;;4.70;99.90;;;;;;5030323;28;20068;-73
2023/01/16 05:16:47;;;;;;;9.57;4.47;;;4.80;99.90;;;;;;5030306;28;20045;-73
2023/01/16 05:19:12;;;;;;;7.38;4.60;;;4.70;99.90;;;;;;5030283;28;20476;-73
2023/01/16 05:21:38;;;;;;;10.73;4.85;;;4.70;99.90;;;;;;5029960;28;20045;-73
2023/01/16 05:24:04;;;;;;;9.95;5.43;;;4.80;99.90;;;;;;5029006;28;20125;-73
2023/01/16 05:26:30;;;;;;;11.52;5.20;;;4.80;99.90;;;;;;5029905;28;20041;-73
2023/01/16 05:28:55;;;;;;;10.90;5.78;;;4.80;99.90;;;;;;5031150;28;20037;-73
2023/01/16 05:31:21;;;;;;;7.97;4.82;;;4.90;99.90;;;;;;5031334;28;20371;-73
2023/01/16 05:33:46;;;;;;;8.70;5.78;;;4.90;99.90;;;;;;5030658;28;20587;-73
2023/01/16 05:36:12;;;;;;;7.40;5.43;;;4.80;99.90;;;;;;5031366;28;20057;-72
2023/01/16 05:38:37;;;;;;;7.60;5.35;;;4.90;99.90;;;;;;5031356;28;20095;-73
2023/01/16 05:41:03;;;;;;;10.90;6.20;;;4.80;99.90;;;;;;5031004;28;20037;-73
2023/01/16 05:43:28;;;;;;;12.13;6.68;;;4.90;99.90;;;;;;5029250;28;20052;-73
2023/01/16 05:45:54;;;;;;;9.80;5.85;;;4.80;99.90;;;;;;5030997;28;20044;-73
2023/01/16 05:48:20;;;;;;;9.60;6.15;;;4.80;99.90;;;;;;5031196;28;20067;-72
2023/01/16 05:50:45;;;;;;;12.75;8.38;;;4.70;99.90;;;;;;5031214;28;20037;-73
2023/01/16 05:53:11;;;;;;;13.32;7.18;;;4.60;99.90;;;;;;5030074;28;20049;-73
2023/01/16 05:55:44;;;;;;;16.83;9.40;;;4.70;99.90;;;;;;5029819;28;20045;-73
2023/01/16 05:58:11;;;;;;;13.68;8.00;;;4.50;99.90;;;;;;5030709;28;20137;-73
2023/01/16 06:00:37;;;;;;;13.95;8.25;;;4.60;99.90;;;;;;5029544;28;20403;-72
2023/01/16 06:03:03;;;;;;;14.43;8.35;;;4.50;99.90;;;;;;5030350;28;20037;-73
2023/01/16 06:05:29;;;;;;;13.50;8.30;;;4.60;99.90;;;;;;5031081;28;20045;-73
2023/01/16 06:07:58;;;;;;;12.75;8.25;;;4.60;99.90;;;;;;5032093;28;20083;-73
2023/01/16 06:10:25;;;;;;;15.90;8.88;;;4.40;99.90;;;;;;5034520;28;20045;-73
2023/01/16 06:12:51;;;;;;;17.33;9.27;;;4.30;99.90;;;;;;5032280;28;20076;-73
2023/01/16 06:15:17;;;;;;;18.52;9.55;;;4.40;99.90;;;;;;5034608;28;20061;-72
2023/01/16 06:17:42;;;;;;;14.98;8.93;;;4.30;99.90;;;;;;5034315;28;20072;-72
2023/01/16 06:20:09;;;;;;;18.20;8.60;;;4.20;99.90;;;;;;5032997;28;20064;-72
2023/01/16 06:22:35;;;;;;;16.00;9.90;;;4.20;99.90;;;;;;5033510;28;20565;-73
2023/01/16 06:25:00;;;;;;;16.17;9.52;;;4.40;99.90;;;;;;5034043;28;20041;-73
2023/01/16 06:27:26;;;;;;;19.45;10.88;;;4.20;99.90;;;;;;5033066;28;20052;-72
2023/01/16 06:29:51;;;;;;;18.90;9.65;;;4.20;99.90;;;;;;5034076;28;20491;-72
2023/01/16 06:32:17;;;;;;;16.70;10.15;;;4.20;99.90;;;;;;5033746;28;20042;-73
2023/01/16 06:34:43;;;;;;;19.95;10.45;;;4.10;99.90;;;;;;5032405;28;20029;-72
2023/01/16 06:37:09;;;;;;;20.42;10.25;;;4.20;99.90;;;;;;5032784;28;20037;-72
2023/01/16 06:39:35;;;;;;;15.80;9.93;;;4.30;99.90;;;;;;5033885;28;20553;-72
2023/01/16 06:42:03;;;;;;;23.27;11.68;;;4.30;99.90;;;;;;5033826;28;20095;-72
2023/01/16 06:44:28;;;;;;;18.38;9.65;;;4.30;99.90;;;;;;5033185;28;20037;-72
2023/01/16 06:46:54;;;;;;;23.60;10.52;;;4.30;99.90;;;;;;5032544;28;20369;-73
2023/01/16 06:49:20;;;;;;;22.45;9.57;;;4.40;99.90;;;;;;5030057;28;20045;-72
2023/01/16 06:51:45;;;;;;;20.38;9.15;;;4.40;99.90;;;;;;5014299;28;20093;-72
2023/01/16 06:54:11;;;;;;;20.23;9.15;;;4.50;99.90;;;;;;5013352;28;20059;-73
2023/01/16 06:56:37;;;;;;;16.23;8.27;;;4.40;99.90;;;;;;5012598;28;20034;-75
2023/01/16 06:59:03;;;;;;;16.65;10.35;;;4.40;99.90;;;;;;5012384;28;20046;-75
2023/01/16 07:01:28;;;;;;;14.93;8.95;;;4.40;99.90;;;;;;5012714;28;20145;-74
2023/01/16 07:03:54;;;;;;;16.77;9.15;;;4.20;99.90;;;;;;5011705;28;20038;-74
2023/01/16 07:06:20;;;;;;;27.38;10.57;;;4.30;99.90;;;;;;5012129;28;20121;-74
2023/01/16 07:08:48;;;;;;;14.30;8.75;;;4.20;99.90;;;;;;5012501;28;20132;-75
2023/01/16 07:11:14;;;;;;;16.70;8.23;;;4.30;99.90;;;;;;5012700;28;20072;-74
2023/01/16 07:13:39;;;;;;;13.80;8.40;;;4.20;99.90;;;;;;5013113;28;20500;-75
2023/01/16 07:22:34;;;;;;;15.57;7.47;;;4.30;99.90;;;;;;5012162;28;20054;-75
2023/01/16 07:24:26;;;;;;;14.98;8.73;;;4.10;99.90;;;;;;5011466;28;20072;-74
2023/01/16 07:26:58;;;;;;;13.63;7.70;;;4.20;99.90;;;;;;5012457;28;20081;-74
2023/01/16 07:29:25;;;;;;;11.85;6.90;;;4.10;99.90;;;;;;5012155;28;20129;-74
2023/01/16 07:31:51;;;;;;;13.63;7.95;;;4.10;99.90;;;;;;5011914;28;20042;-74
2023/01/16 07:34:16;;;;;;;10.68;7.25;;;4.10;99.90;;;;;;4994831;28;20053;-74
2023/01/16 07:36:42;;;;;;;13.60;7.45;;;4.10;99.90;;;;;;5012191;28;20045;-74
2023/01/16 07:39:07;;;;;;;14.32;7.88;;;4.10;99.90;;;;;;5012120;28;20049;-74
2023/01/16 07:41:33;;;;;;;16.75;8.98;;;4.20;99.90;;;;;;5011891;28;20513;-74
2023/01/16 07:43:58;;;;;;;15.57;7.80;;;4.20;99.90;;;;;;5011093;28;20041;-74
2023/01/16 07:46:24;;;;;;;12.32;8.27;;;4.00;99.90;;;;;;5012010;28;20388;-74
2023/01/16 07:48:51;;;;;;;13.95;7.30;;;3.90;99.90;;;;;;5011671;28;20500;-74
2023/01/16 07:51:17;;;;;;;12.13;6.93;;;4.00;99.90;;;;;;5011723;28;20034;-74
2023/01/16 07:53:42;;;;;;;11.85;7.03;;;4.10;99.90;;;;;;5011019;28;20038;-74
2023/01/16 07:56:08;;;;;;;13.57;6.63;;;4.00;99.90;;;;;;5011563;28;20038;-74
2023/01/16 07:58:33;;;;;;;17.27;8.07;;;4.00;99.90;;;;;;5011821;28;20085;-74
2023/01/16 08:00:59;;;;;;;12.75;7.68;;;4.10;99.90;;;;;;5011664;28;20064;-74
2023/01/16 08:03:25;;;;;;;15.63;7.93;;;4.20;99.90;;;;;;5010545;28;20045;-74
2023/01/16 08:05:58;;;;;;;16.15;8.25;;;4.20;99.90;;;;;;5011849;28;20562;-74
2023/01/16 08:08:25;;;;;;;15.60;8.30;;;4.10;99.90;;;;;;5012704;28;20049;-75
2023/01/16 08:10:55;;;;;;;16.10;6.72;;;4.20;99.90;;;;;;5011325;28;20077;-74
2023/01/16 08:13:21;;;;;;;14.82;7.15;;;4.10;99.90;;;;;;5010451;28;20038;-74
2023/01/16 08:15:46;;;;;;;16.00;7.15;;;4.10;99.90;;;;;;5012428;28;20042;-75
2023/01/16 08:18:13;;;;;;;12.40;8.35;;;4.00;99.90;;;;;;5011219;28;20444;-74
2023/01/16 08:20:38;;;;;;;17.10;7.63;;;4.20;99.90;;;;;;5011186;28;20539;-74
2023/01/16 08:23:04;;;;;;;12.15;6.72;;;4.10;99.90;;;;;;5010137;28;20050;-74
2023/01/16 08:25:29;;;;;;;13.52;7.85;;;4.00;99.90;;;;;;5012572;28;20045;-74
2023/01/16 08:27:55;;;;;;;14.88;7.82;;;4.20;99.90;;;;;;5010989;28;20092;-74
2023/01/16 08:30:20;;;;;;;11.55;7.43;;;4.20;99.90;;;;;;5010922;28;20068;-74
2023/01/16 08:32:46;;;;;;;13.70;7.15;;;4.10;99.90;;;;;;5009816;28;20392;-74
2023/01/16 08:35:12;;;;;;;15.00;7.30;;;4.20;99.90;;;;;;5011066;28;20038;-72
2023/01/16 08:37:37;;;;;;;13.88;7.53;;;4.20;99.90;;;;;;5012318;28;20535;-72
2023/01/16 08:40:07;;;;;;;12.30;7.65;;;4.10;99.90;;;;;;5012113;28;20443;-72
2023/01/16 08:53:32;;;;;;;12.93;6.90;;;4.30;99.90;;;;;;5011135;28;20076;-72
2023/01/16 08:55:58;;;;;;;13.63;6.38;;;4.40;99.90;;;;;;5011891;28;20045;-73
2023/01/16 08:58:23;;;;;;;15.43;7.45;;;4.30;99.90;;;;;;5031705;28;20041;-72
2023/01/16 09:00:49;;;;;;;14.18;6.78;;;4.40;99.90;;;;;;5030632;28;20045;-72
2023/01/16 09:03:18;;;;;;;13.48;6.82;;;4.40;99.90;;;;;;5030771;28;20049;-72
2023/01/16 09:05:44;;;;;;;12.32;6.72;;;4.50;99.90;;;;;;5031358;28;20507;-72
2023/01/16 09:08:10;;;;;;;10.75;6.32;;;4.40;99.90;;;;;;5030253;28;20073;-72
2023/01/16 09:10:35;;;;;;;12.70;6.72;;;4.40;99.90;;;;;;5031544;28;20041;-72
2023/01/16 09:15:45;;;;;;;10.00;6.43;;;4.50;99.90;;;;;;5031628;28;20478;-73
2023/01/16 09:18:10;;;;;;;10.85;5.95;;;4.50;99.90;;;;;;5030088;28;20041;-73
2023/01/16 09:20:36;;;;;;;9.50;6.07;;;4.50;99.90;;;;;;5030204;28;20075;-73
2023/01/16 09:23:03;;;;;;;8.32;5.25;;;4.60;99.90;;;;;;5030726;28;20072;-72
2023/01/16 09:25:30;;;;;;;7.25;5.60;;;4.50;99.90;;;;;;5030460;28;20084;-73
2023/01/16 09:27:56;;;;;;;13.07;7.40;;;4.50;99.90;;;;;;5031283;28;20534;-73
2023/01/16 09:30:21;;;;;;;11.75;5.95;;;4.60;99.90;;;;;;5031461;28;20039;-73
2023/01/16 09:32:47;;;;;;;9.25;5.22;;;4.50;99.90;;;;;;5029200;28;20491;-73
2023/01/16 09:35:13;;;;;;;11.80;5.32;;;4.50;99.90;;;;;;5030186;28;20041;-72
2023/01/16 09:37:42;;;;;;;9.55;5.65;;;4.70;99.90;;;;;;5031569;28;20038;-73
2023/01/16 09:40:12;;;;;;;9.15;5.00;;;4.50;99.90;;;;;;5031577;28;20034;-72
2023/01/16 09:45:58;;;;;;;8.50;5.18;;;4.60;99.90;;;;;;5035434;28;20045;-73
2023/01/16 09:48:38;;;;;;;10.68;5.00;;;4.60;99.90;;;;;;5035182;28;20045;-73
2023/01/16 09:51:10;;;;;;;8.25;4.43;;;4.60;99.90;;;;;;5035091;28;20033;-72
2023/01/16 09:59:28;;;;;;;7.82;4.40;;;4.60;99.90;;;;;;5033581;28;20518;-73
2023/01/16 10:02:03;;;;;;;11.43;4.55;;;4.80;99.90;;;;;;5034720;28;20045;-72
2023/01/16 10:04:30;;;;;;;8.50;3.63;;;4.70;99.90;;;;;;5034180;28;20164;-73
2023/01/16 10:07:23;;;;;;;8.82;3.83;;;4.60;99.90;;;;;;5034972;28;20450;-72
2023/01/16 10:10:23;;;;;;;7.97;4.22;;;4.70;99.90;;;;;;5036201;28;20522;-72
2023/01/16 10:13:26;;;;;;;7.40;3.60;;;4.70;99.90;;;;;;5016146;28;20549;-73
2023/01/16 10:16:13;;;;;;;10.55;3.67;;;4.70;99.90;;;;;;5016826;28;20660;-72
2023/01/16 10:19:00;;;;;;;8.40;3.00;;;4.80;99.90;;;;;;5033270;28;20045;-73
2023/01/16 10:21:44;;;;;;;10.77;4.75;;;4.80;99.90;;;;;;5034838;28;20041;-73
2023/01/16 10:24:09;;;;;;;;;;;4.80;99.90;;;;;;5032953;28;20137;-73
2023/01/16 10:26:57;;;;;;;3.72;2.72;;;4.70;99.90;;;;;;5033226;28;20422;-73
2023/01/16 10:29:49;;;;;;;5.65;2.63;;;4.80;99.90;;;;;;5033074;28;20115;-72
2023/01/16 10:32:33;;;;;;;6.57;3.30;;;4.70;99.90;;;;;;5032682;28;20175;-73
2023/01/16 10:35:11;;;;;;;5.13;3.35;;;4.60;99.90;;;;;;5016598;28;20049;-73
2023/01/16 10:37:38;;;;;;;5.32;2.83;;;4.70;99.90;;;;;;5032906;28;20049;-73
2023/01/16 10:40:24;;;;;;;5.95;2.88;;;4.70;99.90;;;;;;5032917;28;20068;-73
2023/01/16 10:51:15;;;;;;;4.72;3.00;;;4.60;99.90;;;;;;5034016;28;20356;-72
2023/01/16 10:53:41;;;;;;;4.00;2.65;;;4.60;99.90;;;;;;5031496;28;20041;-73
2023/01/16 10:56:07;;;;;;;6.85;2.88;;;4.50;99.90;;;;;;5033325;28;20389;-72
2023/01/16 10:58:37;;;;;;;7.03;2.90;;;4.70;99.90;;;;;;5032469;28;20503;-72
2023/01/16 11:01:15;;;;;;;3.05;2.00;;;4.70;99.90;;;;;;5032516;28;20049;-72
2023/01/16 11:03:50;;;;;;;5.30;2.75;;;4.70;99.90;;;;;;5031967;28;20124;-73
2023/01/16 11:06:20;;;;;;;6.28;2.28;;;4.60;99.90;;;;;;5032389;28;20053;-74
2023/01/16 11:08:55;;;;;;;5.03;2.03;;;4.50;99.90;;;;;;5032292;28;20121;-73
2023/01/16 11:20:27;;;;;;;2.83;2.50;;;4.50;99.90;;;;;;5033642;28;20120;-73
2023/01/16 11:23:03;;;;;;;8.27;3.58;;;4.40;99.90;;;;;;5031218;28;20043;-73
2023/01/16 11:25:30;;;;;;;4.07;1.95;;;4.30;99.90;;;;;;5031998;28;20041;-73
2023/01/16 11:28:02;;;;;;;2.85;2.10;;;4.30;99.90;;;;;;5032246;28;20081;-73
2023/01/16 11:30:33;;;;;;;5.40;2.00;;;4.40;99.90;;;;;;5032055;28;20045;-73
2023/01/16 11:32:59;;;;;;;5.03;1.95;;;4.30;99.90;;;;;;5031027;28;20091;-73
2023/01/16 11:35:32;;;;;;;5.50;2.25;;;4.40;99.90;;;;;;5033160;28;20126;-73
2023/01/16 11:37:58;;;;;;;;;;;4.40;99.90;;;;;;5032320;28;20050;-73
2023/01/16 11:40:34;;;;;;;3.05;2.10;;;4.30;99.90;;;;;;5031885;28;19921;-73
2023/01/16 11:46:03;;;;;;;3.10;1.90;;;4.30;99.90;;;;;;5032083;28;20136;-73
2023/01/16 11:48:44;;;;;;;4.20;2.00;;;4.50;99.90;;;;;;5031885;28;20076;-73
2023/01/16 11:51:23;;;;;;;5.65;2.45;;;4.30;99.90;;;;;;5031890;28;20399;-73
2023/01/16 11:53:51;;;;;;;4.43;1.90;;;4.40;99.90;;;;;;5030763;28;20514;-73
2023/01/16 11:56:35;;;;;;;5.05;2.20;;;4.40;99.90;;;;;;5031761;28;20096;-73
2023/01/16 11:59:06;;;;;;;;;;;4.50;99.90;;;;;;5032171;28;20399;-73
2023/01/16 12:02:16;;;;;;;5.82;2.60;;;4.40;99.90;;;;;;5031372;28;19928;-73
2023/01/16 12:05:53;;;;;;;3.63;1.92;;;4.50;99.90;;;;;;5030247;28;20136;-73
2023/01/16 12:07:56;;;;;;;3.70;1.90;;;4.50;99.90;;;;;;5031181;28;20056;-73
2023/01/16 12:10:48;;;;;;;3.55;1.70;;;4.30;99.90;;;;;;5031015;28;20037;-73
2023/01/16 12:16:06;;;;;;;3.35;1.77;;;4.50;99.90;;;;;;5031282;28;20107;-73
2023/01/16 12:19:09;;;;;;;7.75;2.20;;;4.40;99.90;;;;;;5031338;28;20045;-72
2023/01/16 12:21:55;;;;;;;4.10;2.00;;;4.50;99.90;;;;;;5030029;28;20037;-73
2023/01/16 12:24:38;;;;;;;3.05;2.00;;;4.50;99.90;;;;;;5029508;28;20064;-73
2023/01/16 12:27:17;;;;;;;2.47;1.98;;;4.40;99.90;;;;;;5030411;28;20133;-72
2023/01/16 12:29:59;;;;;;;4.88;1.75;;;4.40;99.90;;;;;;5030853;28;20037;-73
2023/01/16 12:32:40;;;;;;;4.32;2.17;;;4.40;99.90;;;;;;5029957;28;20072;-73
2023/01/16 12:35:28;;;;;;;2.47;1.92;;;4.40;99.90;;;;;;5030875;28;20041;-73
2023/01/16 12:38:04;;;;;;;3.88;1.80;;;4.60;99.90;;;;;;5031304;28;20049;-73
2023/01/16 12:43:17;;;;;;;4.32;2.58;;;4.50;99.90;;;;;;5020910;28;20045;-73
2023/01/16 12:44:04;;;;;;;3.22;1.88;;;4.60;99.90;;;;;;5024500;28;20065;-73
2023/01/16 12:46:56;;;;;;;4.00;2.10;;;4.50;99.90;;;;;;5030397;28;20048;-73
2023/01/16 12:49:53;;;;;;;4.30;2.42;;;4.60;99.90;;;;;;5031222;28;20045;-72
2023/01/16 12:52:45;;;;;;;3.63;2.40;;;4.60;99.90;;;;;;5030845;28;20414;-71
2023/01/16 12:55:35;;;;;;;2.65;1.98;;;4.70;99.90;;;;;;5030014;28;20029;-71
2023/01/16 12:58:18;;;;;;;4.50;2.55;;;4.70;99.90;;;;;;5030454;28;20049;-74
2023/01/16 13:01:08;;;;;;;2.50;2.30;;;4.80;99.90;;;;;;5030571;28;20095;-73
2023/01/16 13:03:52;;;;;;;3.13;2.45;;;4.80;99.90;;;;;;5029897;28;20050;-72
2023/01/16 13:06:46;;;;;;;3.22;2.30;;;4.80;99.90;;;;;;5031994;28;20125;-72
2023/01/16 13:09:26;;;;;;;5.63;2.63;;;4.80;99.90;;;;;;5013869;28;20042;-72
2023/01/16 13:14:55;;;;;;;3.15;2.42;;;4.70;99.90;;;;;;5031339;28;20072;-71
2023/01/16 13:17:27;;;;;;;3.00;2.22;;;4.80;99.90;;;;;;5032049;28;20413;-72
2023/01/16 13:19:54;;;;;;;3.50;2.70;;;4.80;99.90;;;;;;5035317;28;20041;-72
2023/01/16 13:22:25;;;;;;;5.57;2.80;;;4.90;99.90;;;;;;5034057;28;20064;-72
2023/01/16 13:25:04;;;;;;;4.28;3.15;;;4.90;99.90;;;;;;5032338;28;20041;-72
2023/01/16 13:27:44;;;;;;;4.00;2.67;;;4.90;99.90;;;;;;5032040;28;20526;-72
2023/01/16 13:30:16;;;;;;;5.05;3.10;;;4.80;99.90;;;;;;5033368;28;20541;-72
2023/01/16 13:33:05;;;;;;;6.28;3.10;;;4.90;99.90;;;;;;5031852;28;20041;-72
2023/01/16 13:35:36;;;;;;;5.05;3.28;;;5.00;99.90;;;;;;5023467;28;20783;-72
2023/01/16 13:38:17;;;;;;;4.47;2.60;;;4.90;99.90;;;;;;5022906;28;20044;-72
2023/01/16 13:40:58;;;;;;;4.38;3.42;;;4.90;99.90;;;;;;5025211;28;20093;-72
2023/01/16 13:46:19;;;;;;;7.72;3.67;;;4.90;99.90;;;;;;5035173;28;20545;-73
2023/01/16 13:48:52;;;;;;;4.28;2.92;;;5.00;99.90;;;;;;5033734;28;20045;-73
2023/01/16 13:51:20;;;;;;;5.63;3.08;;;5.10;99.90;;;;;;5033797;28;20041;-73
2023/01/16 13:53:51;;;;;;;3.42;2.28;;;5.00;99.90;;;;;;5034389;28;20037;-73
2023/01/16 13:56:20;;;;;;;5.00;2.20;;;5.00;99.90;;;;;;5035107;28;20112;-73
2023/01/16 13:58:53;;;;;;;4.60;2.40;;;5.20;99.90;;;;;;5034813;28;20128;-73
2023/01/16 14:01:44;;;;;;;3.70;2.22;;;5.10;99.90;;;;;;5033595;28;20041;-73
2023/01/16 14:04:15;;;;;;;3.42;3.03;;;5.10;99.90;;;;;;5024326;28;20048;-73
2023/01/16 14:06:49;;;;;;;5.03;2.50;;;5.00;99.90;;;;;;5022403;28;20065;-73
2023/01/16 14:09:20;;;;;;;5.10;2.88;;;5.00;99.90;;;;;;5022369;28;20038;-73
2023/01/16 14:11:58;;;;;;;4.88;2.40;;;5.10;99.90;;;;;;5022354;28;20065;-73
2023/01/16 14:17:47;;;;;;;4.60;2.47;;;5.20;99.90;;;;;;5025698;28;20048;-73
2023/01/16 14:20:44;;;;;;;4.28;2.63;;;5.10;99.90;;;;;;5003307;28;20042;-73
2023/01/16 14:26:00;;;;;;;4.60;2.75;;;5.20;99.90;;;;;;5024049;28;20040;-72
2023/01/16 14:28:27;;;;;;;7.55;4.07;;;5.10;99.90;;;;;;5021829;28;20045;-73